Time;durP1;ratioP1;P1;durP2;ratioP2;P2;SDS_P1;SDS_P2;PMS_P1;PMS_P2;Temp;Humidity;BMP_temperature;BMP_pressure;BME280_temperature;BME280_humidity;BME280_pressure;Samples;Min_cycle;Max_cycle;Signal;HPM_P1;HPM_P2
2023/08/18 00:01:41;;;;;;;3.67;2.22;;;;;;;24.45;68.68;99707.38;4436033;32;33517;-83
2023/08/18 00:04:10;;;;;;;2.45;1.60;;;;;;;24.56;68.40;99717.25;4430944;32;34533;-83
2023/08/18 00:06:39;;;;;;;6.95;3.90;;;;;;;24.43;69.14;99708.44;4431729;32;33808;-83
2023/08/18 00:09:08;;;;;;;4.07;2.45;;;;;;;24.52;69.19;99706.94;4431453;32;33531;-83
2023/08/18 00:11:38;;;;;;;3.12;2.20;;;;;;;24.58;68.51;99710.03;4434033;32;34040;-83
2023/08/18 00:14:07;;;;;;;4.43;2.47;;;;;;;24.58;68.87;99703.87;4436725;32;33149;-83
2023/08/18 00:16:38;;;;;;;3.72;2.25;;;;;;;24.45;69.46;99717.09;4431274;32;33322;-83
2023/08/18 00:19:06;;;;;;;4.65;2.47;;;;;;;24.48;69.09;99706.34;4432636;32;33828;-83
2023/08/18 00:21:35;;;;;;;3.42;2.00;;;;;;;24.74;68.05;99701.81;4431188;32;33961;-83
2023/08/18 00:24:05;;;;;;;4.30;2.22;;;;;;;24.51;69.20;99714.06;4436416;32;33749;-83
2023/08/18 00:26:34;;;;;;;4.47;2.28;;;;;;;24.47;69.60;99707.28;4431349;32;33132;-83
2023/08/18 00:29:04;;;;;;;3.60;1.95;;;;;;;24.55;69.47;99706.72;4430915;32;33540;-83
2023/08/18 00:31:33;;;;;;;3.65;1.83;;;;;;;24.57;69.29;99705.66;4431482;32;34575;-83
2023/08/18 00:34:03;;;;;;;4.15;2.17;;;;;;;24.63;69.27;99697.28;4432481;32;34081;-84
2023/08/18 00:36:32;;;;;;;3.72;2.03;;;;;;;24.55;69.50;99699.66;4438438;32;33312;-83
2023/08/18 00:39:01;;;;;;;3.90;1.92;;;;;;;24.67;68.95;99693.47;4434071;32;33528;-83
2023/08/18 00:41:31;;;;;;;3.47;1.70;;;;;;;24.67;69.02;99696.13;4446582;32;33904;-83
2023/08/18 00:43:59;;;;;;;3.80;2.08;;;;;;;24.66;68.79;99697.06;4446813;32;33868;-83
2023/08/18 00:46:30;;;;;;;4.28;2.30;;;;;;;24.74;68.41;99691.19;4452462;32;33116;-84
2023/08/18 00:48:59;;;;;;;;;;;;;;;24.70;68.33;99687.94;4432741;32;32604;-83
2023/08/18 00:51:28;;;;;;;3.00;1.98;;;;;;;24.62;68.63;99692.94;4446899;32;33932;-83
2023/08/18 00:53:57;;;;;;;2.65;1.85;;;;;;;24.58;68.69;99695.91;4447391;32;33620;-83
2023/08/18 00:56:26;;;;;;;2.85;1.75;;;;;;;24.52;68.98;99683.94;4466054;32;33386;-83
2023/08/18 00:58:55;;;;;;;3.33;2.08;;;;;;;24.55;69.24;99682.84;4446157;32;33440;-83
2023/08/18 01:01:26;;;;;;;3.25;1.90;;;;;;;24.66;68.58;99680.28;4455975;32;34383;-83
2023/08/18 01:03:58;;;;;;;4.00;2.17;;;;;;;24.72;68.00;99677.22;4432286;32;33406;-83
2023/08/18 01:06:27;;;;;;;5.15;2.33;;;;;;;24.65;68.38;99679.44;4431138;32;34329;-83
2023/08/18 01:08:56;;;;;;;2.78;1.77;;;;;;;24.67;68.10;99685.50;4436493;32;33827;-83
2023/08/18 01:11:32;;;;;;;4.68;1.92;;;;;;;24.56;68.83;99680.09;4431283;32;33819;-84
2023/08/18 01:14:15;;;;;;;4.03;2.37;;;;;;;24.49;68.96;99686.81;4430587;32;33469;-83
2023/08/18 01:16:48;;;;;;;3.42;1.60;;;;;;;24.52;69.23;99685.72;4430937;32;32810;-83
2023/08/18 01:19:21;;;;;;;2.90;1.75;;;;;;;24.44;69.22;99676.50;4432085;32;34374;-83
2023/08/18 01:21:54;;;;;;;5.57;2.67;;;;;;;24.55;68.59;99678.44;4436529;32;33112;-83
2023/08/18 01:24:25;;;;;;;3.15;1.60;;;;;;;24.59;68.43;99687.00;4430928;32;33675;-83
2023/08/18 01:26:53;;;;;;;2.25;1.70;;;;;;;24.61;68.16;99679.78;4440258;32;34041;-83
2023/08/18 01:29:23;;;;;;;3.28;1.65;;;;;;;24.57;68.20;99680.94;4431755;32;33963;-83
2023/08/18 01:31:58;;;;;;;3.65;2.37;;;;;;;24.47;68.18;99678.94;4436379;32;34754;-84
2023/08/18 01:34:28;;;;;;;2.72;1.70;;;;;;;24.28;69.24;99678.53;4436143;32;33632;-84
2023/08/18 01:36:58;;;;;;;3.53;2.23;;;;;;;24.38;69.01;99682.25;4430329;32;32761;-83
2023/08/18 01:39:29;;;;;;;3.87;2.25;;;;;;;24.30;69.25;99686.38;4436407;32;33634;-83
2023/08/18 01:41:58;;;;;;;3.45;1.87;;;;;;;24.33;69.13;99675.53;4446475;32;34746;-84
2023/08/18 01:44:27;;;;;;;3.92;2.10;;;;;;;24.32;69.16;99673.87;4451162;32;34595;-84
2023/08/18 01:46:56;;;;;;;3.15;1.85;;;;;;;24.40;69.21;99671.50;4446704;32;33169;-83
2023/08/18 01:49:24;;;;;;;3.50;1.85;;;;;;;24.36;69.11;99667.41;4436718;32;34579;-83
2023/08/18 01:51:54;;;;;;;3.97;2.17;;;;;;;24.48;69.00;99672.69;4429564;32;34594;-84
2023/08/18 01:54:23;;;;;;;3.92;2.40;;;;;;;24.50;68.99;99672.59;4434297;32;34035;-83
2023/08/18 01:56:57;;;;;;;3.58;1.80;;;;;;;24.45;69.10;99672.91;4434967;32;32621;-83
2023/08/18 01:59:28;;;;;;;3.65;2.37;;;;;;;24.42;69.19;99670.44;4438400;32;33625;-83
2023/08/18 02:01:57;;;;;;;3.83;1.90;;;;;;;24.40;69.40;99666.22;4444059;32;34421;-84
2023/08/18 02:04:25;;;;;;;3.22;1.67;;;;;;;24.50;69.12;99669.94;4430526;32;33581;-84
2023/08/18 02:06:54;;;;;;;3.25;1.90;;;;;;;24.41;69.87;99667.91;4435660;32;34132;-83
2023/08/18 02:09:23;;;;;;;3.37;2.00;;;;;;;24.25;70.24;99673.44;4430074;32;33261;-84
2023/08/18 02:11:52;;;;;;;2.58;2.08;;;;;;;24.28;70.14;99668.78;4429976;32;33987;-83
2023/08/18 02:14:23;;;;;;;3.33;1.62;;;;;;;24.47;69.60;99667.50;4429902;32;33880;-83
2023/08/18 02:16:52;;;;;;;3.65;2.17;;;;;;;24.36;70.03;99673.53;4435851;32;33773;-83
2023/08/18 02:19:21;;;;;;;3.40;1.87;;;;;;;24.49;69.58;99668.25;4434463;32;33607;-84
2023/08/18 02:21:49;;;;;;;3.85;2.17;;;;;;;24.57;69.45;99676.47;4430390;32;34006;-84
2023/08/18 02:24:18;;;;;;;5.15;2.80;;;;;;;24.51;69.51;99670.78;4429897;32;33966;-84
2023/08/18 02:26:47;;;;;;;4.00;2.22;;;;;;;24.54;69.65;99671.41;4432497;32;33303;-82
2023/08/18 02:29:16;;;;;;;4.82;2.17;;;;;;;24.76;69.09;99668.06;4437538;32;34732;-81
2023/08/18 02:31:49;;;;;;;3.40;1.87;;;;;;;24.59;69.77;99666.63;4432547;32;33936;-81
2023/08/18 02:34:18;;;;;;;3.80;2.20;;;;;;;24.58;70.45;99667.59;4431979;32;33137;-81
2023/08/18 02:36:46;;;;;;;2.78;1.85;;;;;;;24.53;71.17;99659.13;4431600;32;33074;-81
2023/08/18 02:39:15;;;;;;;5.43;2.62;;;;;;;24.60;71.05;99655.06;4442261;32;33685;-81
2023/08/18 02:41:47;;;;;;;2.78;2.10;;;;;;;24.56;71.20;99658.87;4447708;32;34464;-81
2023/08/18 02:44:17;;;;;;;3.60;2.20;;;;;;;24.56;71.69;99658.87;4447397;32;33887;-81
2023/08/18 02:46:46;;;;;;;3.42;1.75;;;;;;;24.37;72.50;99669.91;4447270;32;32672;-81
2023/08/18 02:49:16;;;;;;;3.45;1.95;;;;;;;24.43;72.49;99677.47;4447337;32;33848;-82
2023/08/18 02:51:45;;;;;;;3.22;1.85;;;;;;;24.58;72.37;99669.41;4453013;32;34070;-81
2023/08/18 02:54:14;;;;;;;3.83;2.17;;;;;;;24.55;72.20;99678.44;4449886;32;33625;-81
2023/08/18 02:56:44;;;;;;;4.10;2.05;;;;;;;24.45;72.55;99672.03;4446895;32;32498;-80
2023/08/18 02:59:13;;;;;;;5.12;2.50;;;;;;;24.59;71.90;99668.44;4447389;32;33437;-80
2023/08/18 03:01:42;;;;;;;3.35;2.00;;;;;;;24.50;72.16;99664.66;4453027;32;34820;-80
2023/08/18 03:04:14;;;;;;;4.10;2.22;;;;;;;24.42;72.44;99666.94;4431737;32;33485;-80
2023/08/18 03:06:44;;;;;;;3.08;1.85;;;;;;;24.26;73.20;99672.50;4432082;32;33391;-81
2023/08/18 03:09:13;;;;;;;3.53;2.03;;;;;;;24.37;72.78;99663.78;4431662;32;35771;-81
2023/08/18 03:11:41;;;;;;;4.20;2.20;;;;;;;24.47;72.33;99662.19;4431497;32;34647;-81
2023/08/18 03:14:10;;;;;;;3.97;2.30;;;;;;;24.42;72.51;99662.47;4437278;32;33541;-81
2023/08/18 03:16:39;;;;;;;2.95;1.58;;;;;;;24.35;73.36;99660.38;4431681;32;33235;-80
2023/08/18 03:19:08;;;;;;;4.35;2.35;;;;;;;24.38;73.86;99665.47;4432342;32;33586;-81
2023/08/18 03:21:37;;;;;;;4.10;2.30;;;;;;;24.43;73.04;99663.34;4434338;32;33703;-81
2023/08/18 03:24:08;;;;;;;3.62;1.98;;;;;;;24.41;73.38;99659.97;4436965;32;33446;-80
2023/08/18 03:26:37;;;;;;;5.50;2.47;;;;;;;24.46;72.91;99665.81;4431321;32;33129;-81
2023/08/18 03:29:05;;;;;;;4.12;2.65;;;;;;;23.99;75.34;99670.81;4431251;32;33857;-81
2023/08/18 03:31:37;;;;;;;5.22;2.65;;;;;;;24.12;75.45;99670.81;4431031;32;35300;-80
2023/08/18 03:34:06;;;;;;;3.33;2.10;;;;;;;24.12;74.87;99678.75;4436872;32;33910;-82
2023/08/18 03:36:35;;;;;;;4.20;2.08;;;;;;;24.25;74.34;99674.28;4436096;32;33214;-81
2023/08/18 03:39:05;;;;;;;4.10;2.33;;;;;;;24.31;73.39;99680.09;4443163;32;33420;-81
2023/08/18 03:41:37;;;;;;;3.28;1.77;;;;;;;24.35;73.08;99673.63;4446607;32;34761;-81
2023/08/18 03:44:06;;;;;;;4.87;2.33;;;;;;;24.52;72.56;99672.47;4446676;32;34416;-81
2023/08/18 03:46:35;;;;;;;3.85;2.30;;;;;;;24.36;73.27;99673.53;4452346;32;33411;-81
2023/08/18 03:49:05;;;;;;;3.78;2.05;;;;;;;24.37;73.03;99674.38;4447127;32;34505;-81
2023/08/18 03:51:35;;;;;;;3.03;1.70;;;;;;;24.31;73.24;99670.38;4447697;32;34722;-82
2023/08/18 03:54:04;;;;;;;5.05;2.78;;;;;;;24.38;72.61;99671.63;4446896;32;34713;-81
2023/08/18 03:56:33;;;;;;;4.68;2.78;;;;;;;24.37;72.77;99677.03;4452077;32;33040;-81
2023/08/18 03:59:03;;;;;;;3.62;2.10;;;;;;;24.02;74.30;99667.13;4451511;32;33521;-81
2023/08/18 04:01:32;;;;;;;3.90;2.33;;;;;;;24.05;74.06;99666.88;4446809;32;33211;-81
2023/08/18 04:04:01;;;;;;;5.85;2.03;;;;;;;24.29;73.21;99674.94;4446331;32;33480;-81
2023/08/18 04:06:31;;;;;;;4.15;2.60;;;;;;;24.18;73.52;99680.97;4446376;32;34196;-81
2023/08/18 04:09:06;;;;;;;4.22;2.30;;;;;;;24.24;73.67;99674.41;4452196;32;33534;-81
2023/08/18 04:11:36;;;;;;;5.03;2.83;;;;;;;24.24;73.82;99664.66;4446474;32;34264;-82
2023/08/18 04:14:06;;;;;;;3.75;2.10;;;;;;;24.37;73.06;99672.56;4446671;32;34242;-81
2023/08/18 04:16:36;;;;;;;5.57;2.28;;;;;;;24.24;73.43;99675.25;4446419;32;32587;-81
2023/08/18 04:19:05;;;;;;;5.25;2.62;;;;;;;24.34;73.19;99672.81;4450922;32;34449;-81
2023/08/18 04:21:34;;;;;;;3.95;2.42;;;;;;;24.30;73.51;99675.78;4451552;32;33860;-81
2023/08/18 04:24:04;;;;;;;3.47;2.03;;;;;;;24.27;73.55;99669.72;4446385;32;33940;-81
2023/08/18 04:26:35;;;;;;;5.57;2.78;;;;;;;24.25;73.57;99670.78;4446442;32;33664;-81
2023/08/18 04:29:06;;;;;;;3.20;1.80;;;;;;;24.45;72.53;99667.59;4446416;32;34724;-81
2023/08/18 04:31:34;;;;;;;4.62;2.60;;;;;;;24.36;73.01;99668.25;4451814;32;34508;-81
2023/08/18 04:34:07;;;;;;;4.30;2.50;;;;;;;24.25;73.72;99668.13;4447304;32;34230;-82
2023/08/18 04:36:37;;;;;;;4.05;2.03;;;;;;;24.30;73.91;99666.00;4446166;32;33089;-81
2023/08/18 04:39:06;;;;;;;4.03;2.27;;;;;;;24.44;73.42;99665.03;4446428;32;34361;-81
2023/08/18 04:41:35;;;;;;;3.17;2.05;;;;;;;24.49;73.61;99660.28;4452166;32;34317;-81
2023/08/18 04:44:06;;;;;;;3.95;2.00;;;;;;;24.46;74.33;99664.00;4451414;32;34244;-81
2023/08/18 04:46:35;;;;;;;4.55;2.40;;;;;;;24.46;74.93;99663.16;4446152;32;33668;-81
2023/08/18 04:49:04;;;;;;;3.50;2.03;;;;;;;24.82;72.64;99664.97;4445824;32;34459;-81
2023/08/18 04:51:33;;;;;;;4.65;2.42;;;;;;;24.77;73.28;99668.94;4446513;32;33918;-82
2023/08/18 04:54:03;;;;;;;3.28;1.90;;;;;;;24.94;71.76;99668.53;4451993;32;34426;-82
2023/08/18 04:56:32;;;;;;;6.25;2.62;;;;;;;24.96;71.94;99665.75;4446154;32;33115;-82
2023/08/18 04:59:01;;;;;;;5.37;2.28;;;;;;;25.06;70.71;99666.78;4446244;32;34380;-81
2023/08/18 05:01:32;;;;;;;3.70;2.00;;;;;;;24.98;71.06;99664.69;4446107;32;34565;-81
2023/08/18 05:04:02;;;;;;;4.53;2.40;;;;;;;24.91;71.74;99671.38;4436824;32;33532;-82
2023/08/18 05:06:31;;;;;;;5.20;2.60;;;;;;;24.99;71.78;99671.69;4430680;32;33454;-81
2023/08/18 05:09:00;;;;;;;4.25;2.20;;;;;;;25.09;71.78;99685.12;4431149;32;34368;-81
2023/08/18 05:11:29;;;;;;;3.20;2.22;;;;;;;24.91;70.40;99688.19;4430814;32;34336;-82
2023/08/18 05:13:58;;;;;;;6.03;3.00;;;;;;;25.05;70.52;99687.16;4430537;32;34649;-81
2023/08/18 05:16:26;;;;;;;4.78;2.33;;;;;;;25.11;71.02;99684.06;4435930;32;33929;-82
2023/08/18 05:18:58;;;;;;;3.78;2.33;;;;;;;25.21;69.84;99691.38;4430455;32;33484;-82
2023/08/18 05:21:27;;;;;;;4.57;1.92;;;;;;;25.71;68.99;99698.22;4430466;32;34503;-82
2023/08/18 05:23:56;;;;;;;2.42;1.60;;;;;;;26.38;66.61;99700.12;4430457;32;33742;-82
2023/08/18 05:26:25;;;;;;;3.40;2.00;;;;;;;27.00;63.92;99700.56;4435892;32;32928;-82
2023/08/18 05:28:53;;;;;;;5.00;1.65;;;;;;;27.62;61.84;99694.56;4430741;32;33670;-82
2023/08/18 05:31:22;;;;;;;3.90;2.22;;;;;;;28.06;58.27;99699.78;4430278;32;34149;-82
2023/08/18 05:33:51;;;;;;;3.83;2.05;;;;;;;28.25;57.33;99696.37;4430761;32;33063;-82
2023/08/18 05:36:22;;;;;;;4.53;2.35;;;;;;;28.19;56.71;99699.53;4430670;32;33221;-81
2023/08/18 05:38:51;;;;;;;3.30;2.00;;;;;;;27.74;57.71;99695.34;4437811;32;33349;-82
2023/08/18 05:41:20;;;;;;;3.67;2.37;;;;;;;28.14;56.02;99702.59;4445915;32;33605;-82
2023/08/18 05:43:48;;;;;;;3.75;2.00;;;;;;;28.18;56.08;99708.53;4445613;32;33756;-82
2023/08/18 05:46:17;;;;;;;3.45;1.58;;;;;;;27.70;56.72;99712.56;4445992;32;33908;-82
2023/08/18 05:48:46;;;;;;;3.03;2.05;;;;;;;27.92;55.86;99711.59;4450927;32;33835;-83
2023/08/18 05:51:17;;;;;;;4.10;2.35;;;;;;;27.81;56.64;99717.84;4444680;32;34628;-82
2023/08/18 05:53:48;;;;;;;4.22;1.60;;;;;;;28.03;56.05;99714.22;4436666;32;33752;-83
2023/08/18 05:56:17;;;;;;;4.25;2.30;;;;;;;27.85;55.23;99708.62;4446786;32;33229;-81
2023/08/18 05:58:47;;;;;;;3.00;1.52;;;;;;;27.67;56.51;99719.00;4434002;32;32476;-83
2023/08/18 06:01:17;;;;;;;2.70;1.60;;;;;;;27.24;57.35;99717.22;4452090;32;33722;-82
2023/08/18 06:03:46;;;;;;;4.78;2.22;;;;;;;27.66;55.70;99714.62;4441398;32;33230;-82
2023/08/18 06:06:15;;;;;;;2.95;1.45;;;;;;;27.20;57.42;99714.94;4443667;32;34049;-82
2023/08/18 06:08:43;;;;;;;2.95;1.80;;;;;;;27.17;57.52;99712.50;4446564;32;34375;-83
2023/08/18 06:11:15;;;;;;;3.08;1.62;;;;;;;26.36;58.87;99710.06;4452312;32;34350;-82
2023/08/18 06:13:43;;;;;;;2.87;2.12;;;;;;;26.79;58.06;99709.31;4446981;32;33497;-82
2023/08/18 06:16:12;;;;;;;3.75;1.80;;;;;;;26.56;57.32;99708.50;4446778;32;33500;-83
2023/08/18 06:18:41;;;;;;;2.58;1.70;;;;;;;26.62;57.75;99715.16;4447472;32;33701;-83
2023/08/18 06:21:10;;;;;;;2.83;1.58;;;;;;;26.58;59.00;99711.06;4452968;32;33527;-82
2023/08/18 06:23:39;;;;;;;3.78;1.62;;;;;;;26.40;58.26;99702.66;4447096;32;33403;-83
2023/08/18 06:26:07;;;;;;;6.62;2.22;;;;;;;26.46;58.15;99709.31;4446778;32;33420;-82
2023/08/18 06:28:37;;;;;;;3.30;1.75;;;;;;;26.83;56.67;99707.28;4440231;32;34678;-82
2023/08/18 06:31:07;;;;;;;2.42;1.35;;;;;;;26.50;57.15;99703.63;4437766;32;32936;-82
2023/08/18 06:33:37;;;;;;;3.70;1.73;;;;;;;26.56;56.79;99710.34;4451648;32;33775;-83
2023/08/18 06:36:07;;;;;;;1.95;1.45;;;;;;;26.48;56.68;99699.41;4445656;32;33673;-82
2023/08/18 06:38:36;;;;;;;3.50;1.50;;;;;;;26.44;57.42;99700.62;4446020;32;34309;-82
2023/08/18 06:41:04;;;;;;;2.35;1.70;;;;;;;26.51;57.87;99704.50;4446006;32;32989;-82
2023/08/18 06:43:33;;;;;;;4.40;2.37;;;;;;;26.36;57.92;99702.09;4451805;32;33807;-82
2023/08/18 06:46:05;;;;;;;4.12;2.30;;;;;;;26.39;57.82;99701.00;4444604;32;33823;-82
2023/08/18 06:48:34;;;;;;;4.50;1.90;;;;;;;26.59;56.59;99704.75;4445488;32;33908;-83
2023/08/18 06:51:02;;;;;;;3.00;1.65;;;;;;;26.86;57.05;99708.84;4447429;32;33950;-82
2023/08/18 06:53:31;;;;;;;4.35;2.00;;;;;;;26.88;57.86;99718.37;4441285;32;33708;-83
2023/08/18 06:56:01;;;;;;;4.78;2.47;;;;;;;27.12;57.29;99710.22;4447871;32;34143;-82
2023/08/18 06:58:31;;;;;;;3.62;2.12;;;;;;;26.98;56.64;99721.16;4447958;32;32867;-83
2023/08/18 07:01:00;;;;;;;4.37;2.00;;;;;;;27.33;56.65;99722.75;4447193;32;33517;-83
2023/08/18 07:03:30;;;;;;;3.30;1.48;;;;;;;27.49;56.05;99719.69;4444860;32;34653;-83
2023/08/18 07:05:59;;;;;;;3.20;1.83;;;;;;;27.54;56.10;99722.81;4451333;32;33530;-83
2023/08/18 07:08:28;;;;;;;2.92;1.67;;;;;;;27.15;56.98;99723.28;4445396;32;33332;-82
2023/08/18 07:10:57;;;;;;;2.67;1.87;;;;;;;27.38;56.78;99720.59;4445627;32;33657;-82
2023/08/18 07:13:26;;;;;;;2.37;1.48;;;;;;;27.24;56.80;99725.22;4458766;32;33663;-82
2023/08/18 07:15:55;;;;;;;2.97;1.55;;;;;;;27.56;55.68;99716.38;4459821;32;32970;-83
2023/08/18 07:18:25;;;;;;;4.28;2.72;;;;;;;27.46;56.54;99718.13;4440718;32;34563;-83
2023/08/18 07:20:57;;;;;;;3.47;1.92;;;;;;;27.31;57.34;99730.06;4443120;32;33097;-83
2023/08/18 07:23:26;;;;;;;4.12;2.08;;;;;;;27.69;55.94;99723.34;4446052;32;33911;-82
2023/08/18 07:25:55;;;;;;;5.22;2.53;;;;;;;27.72;56.24;99728.44;4446358;32;33950;-83
2023/08/18 07:28:24;;;;;;;4.20;2.08;;;;;;;27.32;55.82;99737.06;4449546;32;33895;-82
2023/08/18 07:30:52;;;;;;;3.55;2.10;;;;;;;27.80;55.39;99736.63;4445255;32;34331;-83
2023/08/18 07:33:21;;;;;;;4.05;2.40;;;;;;;27.46;55.80;99731.44;4445177;32;33821;-83
2023/08/18 07:35:50;;;;;;;3.08;2.08;;;;;;;27.34;56.48;99738.62;4446109;32;33282;-83
2023/08/18 07:38:20;;;;;;;3.62;2.17;;;;;;;27.28;56.63;99740.94;4451509;32;34743;-83
2023/08/18 07:40:49;;;;;;;4.32;2.22;;;;;;;27.13;57.00;99738.53;4440696;32;33164;-83
2023/08/18 07:43:18;;;;;;;2.60;1.83;;;;;;;27.21;56.93;99748.63;4439673;32;34265;-83
2023/08/18 07:45:47;;;;;;;4.07;2.03;;;;;;;26.79;59.30;99751.91;4443384;32;33236;-83
2023/08/18 07:48:16;;;;;;;4.15;2.17;;;;;;;27.32;57.14;99747.72;4442629;32;33588;-83
2023/08/18 07:50:45;;;;;;;3.72;2.10;;;;;;;27.31;56.94;99741.56;4448992;32;33548;-83
2023/08/18 07:53:13;;;;;;;2.92;1.80;;;;;;;27.35;57.91;99751.00;4445168;32;34142;-82
2023/08/18 07:55:47;;;;;;;3.05;1.90;;;;;;;27.30;56.93;99755.81;4441686;32;32874;-83
2023/08/18 07:58:16;;;;;;;3.33;1.80;;;;;;;27.79;54.87;99758.94;4432641;32;32974;-83
2023/08/18 08:00:45;;;;;;;3.53;2.53;;;;;;;27.87;55.27;99759.16;4449767;32;34041;-83
2023/08/18 08:03:14;;;;;;;3.53;1.90;;;;;;;27.59;55.43;99771.22;4435538;32;34649;-83
2023/08/18 08:05:43;;;;;;;4.37;2.45;;;;;;;27.79;55.45;99773.09;4427609;32;101291;-83
2023/08/18 08:08:12;;;;;;;3.10;1.92;;;;;;;27.91;55.32;99779.25;4430849;32;33738;-83
2023/08/18 08:10:41;;;;;;;3.95;2.00;;;;;;;27.81;55.85;99772.94;4431223;32;34193;-83
2023/08/18 08:13:11;;;;;;;4.35;2.50;;;;;;;27.69;55.90;99777.50;4439864;32;33507;-83
2023/08/18 08:15:41;;;;;;;4.75;2.00;;;;;;;27.49;57.24;99780.97;4444951;32;32618;-83
2023/08/18 08:18:10;;;;;;;4.70;2.70;;;;;;;27.44;56.58;99779.53;4431432;32;33150;-83
2023/08/18 08:20:41;;;;;;;4.55;2.22;;;;;;;27.64;55.81;99779.69;4442416;32;33615;-83
2023/08/18 08:23:10;;;;;;;4.30;2.10;;;;;;;27.74;55.76;99775.31;4442591;32;33472;-84
2023/08/18 08:25:40;;;;;;;4.95;2.10;;;;;;;27.86;56.14;99778.81;4444731;32;33764;-83
2023/08/18 08:28:08;;;;;;;4.62;2.30;;;;;;;27.92;56.72;99783.59;4445927;32;32988;-83
2023/08/18 08:30:44;;;;;;;6.22;2.35;;;;;;;27.76;56.02;99791.16;4445604;32;33652;-83
2023/08/18 08:33:13;;;;;;;4.65;2.35;;;;;;;28.08;55.01;99788.50;4431184;32;34520;-83
2023/08/18 08:35:45;;;;;;;2.53;1.48;;;;;;;28.42;55.00;99789.13;4436338;32;32869;-83
2023/08/18 08:38:13;;;;;;;4.32;2.12;;;;;;;28.48;53.87;99795.78;4432027;32;33683;-83
2023/08/18 08:40:42;;;;;;;3.55;2.15;;;;;;;28.47;54.40;99791.44;4443100;32;34077;-83
2023/08/18 08:43:11;;;;;;;2.97;1.80;;;;;;;28.40;53.24;99792.91;4447377;32;33490;-83
2023/08/18 08:45:42;;;;;;;4.95;2.42;;;;;;;28.12;54.07;99795.25;4439062;32;33976;-83
2023/08/18 08:48:11;;;;;;;;;;;;;;;28.52;53.90;99791.88;4438564;32;34152;-83
2023/08/18 08:50:42;;;;;;;3.30;1.75;;;;;;;28.71;52.98;99788.44;4441242;32;34939;-83
2023/08/18 08:53:12;;;;;;;4.25;2.25;;;;;;;29.01;52.27;99786.72;4444078;32;32537;-84
2023/08/18 08:55:43;;;;;;;3.22;2.03;;;;;;;29.05;51.85;99790.81;4445580;32;33305;-84
2023/08/18 08:58:12;;;;;;;4.00;2.12;;;;;;;29.00;51.40;99783.22;4450580;32;33261;-83
2023/08/18 09:00:45;;;;;;;4.05;1.85;;;;;;;28.74;51.46;99782.84;4430450;32;34137;-83
2023/08/18 09:03:14;;;;;;;3.37;1.80;;;;;;;28.86;50.79;99779.09;4439425;32;33905;-83
2023/08/18 09:05:43;;;;;;;4.32;2.35;;;;;;;28.75;52.28;99775.66;4430645;32;32958;-83
2023/08/18 09:08:11;;;;;;;3.75;2.08;;;;;;;28.66;52.67;99775.50;4436316;32;33579;-83
2023/08/18 09:10:40;;;;;;;5.93;2.72;;;;;;;28.87;52.69;99772.75;4430510;32;34062;-83
2023/08/18 09:13:10;;;;;;;5.25;2.53;;;;;;;28.40;53.08;99771.56;4447567;32;32614;-83
2023/08/18 09:15:44;;;;;;;4.90;2.22;;;;;;;28.88;51.87;99770.94;4445305;32;33719;-83
2023/08/18 09:18:13;;;;;;;3.12;1.77;;;;;;;29.05;50.34;99761.44;4444158;32;33506;-83
2023/08/18 09:20:43;;;;;;;4.07;2.50;;;;;;;29.20;49.28;99760.09;4444765;32;33670;-82
2023/08/18 09:23:12;;;;;;;3.35;1.95;;;;;;;29.20;49.48;99761.91;4442373;32;33738;-83
2023/08/18 09:25:40;;;;;;;4.05;2.20;;;;;;;29.30;50.42;99755.59;4445136;32;34349;-83
2023/08/18 09:28:09;;;;;;;3.50;1.95;;;;;;;28.94;51.11;99752.53;4444915;32;34241;-83
2023/08/18 09:30:44;;;;;;;4.75;2.33;;;;;;;29.23;50.67;99758.97;4442347;32;33253;-83
2023/08/18 09:33:13;;;;;;;3.80;1.92;;;;;;;29.33;49.50;99757.13;4445482;32;33084;-83
2023/08/18 09:35:42;;;;;;;4.40;2.17;;;;;;;29.26;51.95;99756.00;4445384;32;33035;-83
2023/08/18 09:38:14;;;;;;;3.12;2.03;;;;;;;29.08;52.52;99754.00;4445446;32;33654;-83
2023/08/18 09:40:44;;;;;;;4.55;2.15;;;;;;;29.20;52.40;99765.41;4445339;32;34013;-83
2023/08/18 09:43:17;;;;;;;3.95;2.05;;;;;;;29.30;51.35;99755.59;4450607;32;33591;-83
2023/08/18 09:45:49;;;;;;;;;;;;;;;29.10;51.31;99756.56;4444449;32;33004;-83
2023/08/18 09:48:18;;;;;;;3.05;1.87;;;;;;;29.32;51.80;99758.13;4444578;32;36433;-83
2023/08/18 09:50:49;;;;;;;3.92;2.40;;;;;;;29.23;51.83;99766.97;4444176;32;32589;-84
2023/08/18 09:53:18;;;;;;;4.65;2.42;;;;;;;29.06;52.29;99763.97;4450718;32;34002;-83
2023/08/18 09:55:49;;;;;;;4.00;2.45;;;;;;;29.26;52.10;99751.53;4444973;32;33898;-84
2023/08/18 09:58:23;;;;;;;3.20;1.85;;;;;;;29.37;51.68;99760.38;4431625;32;34380;-84
2023/08/18 10:00:56;;;;;;;4.28;2.25;;;;;;;29.43;51.63;99759.81;4442923;32;33931;-83
2023/08/18 10:03:27;;;;;;;3.95;1.87;;;;;;;29.42;51.58;99756.31;4440529;32;34178;-83
2023/08/18 10:05:56;;;;;;;3.72;1.98;;;;;;;29.47;51.15;99753.22;4443251;32;33023;-83
2023/08/18 10:08:26;;;;;;;4.03;2.20;;;;;;;29.66;51.48;99758.59;4444550;32;34576;-83
2023/08/18 10:10:55;;;;;;;4.07;2.22;;;;;;;29.75;51.20;99751.56;4444386;32;34480;-83
2023/08/18 10:13:25;;;;;;;3.50;2.15;;;;;;;29.44;52.16;99756.19;4444693;32;34108;-82
2023/08/18 10:15:56;;;;;;;5.20;2.50;;;;;;;29.61;51.29;99752.78;4450035;32;34297;-83
2023/08/18 10:18:25;;;;;;;4.12;2.30;;;;;;;29.84;50.94;99749.84;4447452;32;35943;-83
2023/08/18 10:20:54;;;;;;;4.47;2.40;;;;;;;29.89;50.32;99752.94;4444980;32;34665;-83
2023/08/18 10:23:24;;;;;;;4.15;2.17;;;;;;;29.71;51.36;99742.97;4435260;32;34267;-83
2023/08/18 10:25:54;;;;;;;5.82;2.22;;;;;;;30.18;50.78;99743.03;4429883;32;33874;-83
2023/08/18 10:28:24;;;;;;;7.18;2.67;;;;;;;30.39;48.51;99742.00;4435248;32;33436;-83
2023/08/18 10:31:00;;;;;;;4.07;2.12;;;;;;;30.80;47.21;99739.84;4437290;32;32827;-83
2023/08/18 10:33:31;;;;;;;5.15;2.80;;;;;;;30.42;48.55;99744.38;4436573;32;33332;-83
2023/08/18 10:36:03;;;;;;;4.45;2.20;;;;;;;30.52;47.38;99741.69;4439079;32;32579;-83
2023/08/18 10:38:35;;;;;;;4.00;2.25;;;;;;;30.39;49.54;99737.50;4440481;32;34180;-83
2023/08/18 10:41:07;;;;;;;3.65;2.00;;;;;;;30.71;48.83;99740.75;4447325;32;34419;-83
2023/08/18 10:43:45;;;;;;;5.43;3.12;;;;;;;30.57;48.28;99742.94;4441387;32;33362;-83
2023/08/18 10:46:15;;;;;;;4.85;2.75;;;;;;;30.57;48.35;99739.41;4441722;32;33094;-83
2023/08/18 10:48:45;;;;;;;4.22;2.62;;;;;;;30.73;48.82;99742.28;4443565;32;33037;-83
2023/08/18 10:51:14;;;;;;;3.67;1.77;;;;;;;30.55;47.64;99734.19;4447698;32;33729;-83
2023/08/18 10:53:43;;;;;;;2.67;1.77;;;;;;;30.77;48.28;99737.47;4444071;32;33580;-83
2023/08/18 10:56:12;;;;;;;3.58;2.22;;;;;;;30.67;48.42;99739.38;4443367;32;33890;-83
2023/08/18 10:58:41;;;;;;;4.30;2.00;;;;;;;30.79;47.63;99732.81;4443567;32;34139;-84
2023/08/18 11:01:10;;;;;;;6.35;2.30;;;;;;;30.29;47.71;99730.50;4444266;32;35408;-83
2023/08/18 11:03:41;;;;;;;3.87;2.25;;;;;;;30.66;47.09;99732.31;4445665;32;32792;-83
2023/08/18 11:06:10;;;;;;;4.03;1.75;;;;;;;30.73;45.80;99725.38;4444240;32;33846;-83
2023/08/18 11:08:38;;;;;;;3.87;1.92;;;;;;;30.79;45.46;99728.31;4443505;32;34562;-83
2023/08/18 11:11:08;;;;;;;3.42;1.50;;;;;;;30.76;44.83;99725.06;4429666;32;32511;-83
2023/08/18 11:13:37;;;;;;;3.10;1.83;;;;;;;30.89;45.45;99714.88;4450198;32;33604;-82
2023/08/18 11:16:05;;;;;;;4.47;2.05;;;;;;;30.62;45.76;99723.75;4444003;32;33532;-83
2023/08/18 11:18:34;;;;;;;3.30;1.67;;;;;;;30.26;45.70;99726.28;4444318;32;33504;-83
2023/08/18 11:21:05;;;;;;;4.72;2.65;;;;;;;30.88;45.08;99729.28;4444650;32;34877;-83
2023/08/18 11:23:34;;;;;;;4.03;2.10;;;;;;;30.98;44.27;99726.56;4446106;32;33348;-83
2023/08/18 11:26:03;;;;;;;3.58;1.65;;;;;;;31.10;45.71;99727.16;4448423;32;32866;-83
2023/08/18 11:28:34;;;;;;;4.62;2.15;;;;;;;31.10;46.19;99724.47;4444107;32;34382;-83
2023/08/18 11:31:05;;;;;;;3.47;1.80;;;;;;;31.19;45.40;99720.88;4444038;32;35155;-83
2023/08/18 11:33:34;;;;;;;;;;;;;;;31.10;45.24;99724.47;4444848;32;33657;-83
2023/08/18 11:36:03;;;;;;;3.42;1.85;;;;;;;30.87;46.74;99724.06;4446710;32;33067;-83
2023/08/18 11:38:33;;;;;;;3.80;2.28;;;;;;;31.38;44.75;99726.09;4442492;32;33821;-83
2023/08/18 11:41:02;;;;;;;3.42;1.92;;;;;;;31.23;45.60;99728.47;4427020;32;33410;-84
2023/08/18 11:43:32;;;;;;;3.00;1.52;;;;;;;31.48;44.51;99720.69;4444469;32;34579;-84
2023/08/18 11:46:00;;;;;;;4.18;1.77;;;;;;;31.17;43.52;99726.41;4447585;32;34657;-83